Terminal Aerodrome Forecast
Issued by NWS Charleston, WV

Current Version | Previous Version | Graphics & Text | Print | Product List | Glossary On
Versions: 1 2 3 4 5 6 7 8 9 10 11 12 13 14 15 16 17 18 19 20 21 22
000
FTUS41 KRLX 240859 AAA
TAFCRW
TAF AMD
KCRW 240859Z 2409/2506 00000KT 1SM BR BKN001
     FM241200 00000KT 4SM BR FEW001 SCT200
     FM241300 15003KT P6SM SCT150
     FM241800 19005KT P6SM BKN070
     FM250000 15002KT P6SM BKN150
     FM250300 00000KT P6SM SCT150=

USA.gov is the U.S. government's official web portal to all federal, state and local government web resources and services.